Time;durP1;ratioP1;P1;durP2;ratioP2;P2;SDS_P1;SDS_P2;PMS_P1;PMS_P2;Temp;Humidity;BMP_temperature;BMP_pressure;BME280_temperature;BME280_humidity;BME280_pressure;Samples;Min_cycle;Max_cycle;Signal;HPM_P1;HPM_P2
2022/02/08 00:00:55;;;;;;;7.57;3.60;;;3.70;80.80;;;;;;5097015;28;20254;-90
2022/02/08 00:03:22;;;;;;;6.53;3.80;;;3.70;81.80;;;;;;5078361;28;20729;-92
2022/02/08 00:06:11;;;;;;;5.77;3.40;;;3.70;81.20;;;;;;5077316;28;20324;-90
2022/02/08 00:08:34;;;;;;;6.60;3.43;;;3.70;81.40;;;;;;5079911;28;20206;-90
2022/02/08 00:11:00;;;;;;;6.63;3.17;;;3.70;81.60;;;;;;5095238;28;20182;-92
2022/02/08 00:13:26;;;;;;;6.10;3.30;;;3.70;81.60;;;;;;5078829;28;20174;-91
2022/02/08 00:15:51;;;;;;;4.30;3.20;;;3.70;81.30;;;;;;5076939;28;20309;-89
2022/02/08 00:18:17;;;;;;;7.30;3.50;;;3.80;80.80;;;;;;5076882;28;20197;-89
2022/02/08 00:20:42;;;;;;;6.23;3.63;;;3.80;82.00;;;;;;5075877;28;20239;-90
2022/02/08 00:23:08;;;;;;;6.77;3.30;;;3.90;79.80;;;;;;5092930;28;20292;-90
2022/02/08 00:25:34;;;;;;;7.13;3.30;;;4.00;79.70;;;;;;5074311;28;20228;-90
2022/02/08 00:27:59;;;;;;;7.03;3.97;;;4.00;78.90;;;;;;5092357;28;20211;-92
2022/02/08 00:30:25;;;;;;;6.53;2.93;;;3.90;80.20;;;;;;5092862;28;20175;-90
2022/02/08 00:32:51;;;;;;;8.67;3.37;;;4.00;80.00;;;;;;5085628;28;20251;-91
2022/02/08 00:35:16;;;;;;;7.80;3.30;;;4.00;79.00;;;;;;5079445;28;20192;-90
2022/02/08 00:37:42;;;;;;;6.03;2.90;;;4.00;79.00;;;;;;5070950;28;20208;-90
2022/02/08 00:40:08;;;;;;;5.73;3.00;;;4.00;80.00;;;;;;5062184;28;20558;-90
2022/02/08 00:42:35;;;;;;;6.53;2.80;;;3.90;81.10;;;;;;5087835;28;20190;-91
2022/02/08 00:47:35;;;;;;;5.27;3.10;;;4.00;79.70;;;;;;5077425;28;20705;-91
2022/02/08 00:50:08;;;;;;;6.27;3.40;;;3.90;80.40;;;;;;5067611;28;20214;-88
2022/02/08 00:52:36;;;;;;;5.93;3.23;;;3.90;80.60;;;;;;5077995;28;20175;-89
2022/02/08 00:55:04;;;;;;;10.57;3.43;;;3.80;81.00;;;;;;5087878;28;20198;-89
2022/02/08 00:57:29;;;;;;;6.87;3.40;;;3.70;81.20;;;;;;5069396;28;20239;-88
2022/02/08 00:59:55;;;;;;;5.97;3.60;;;3.70;81.80;;;;;;5070214;28;20195;-88
2022/02/08 01:02:21;;;;;;;4.73;3.10;;;3.70;81.70;;;;;;5084728;28;20245;-89
2022/02/08 01:04:53;;;;;;;7.23;3.77;;;3.60;82.60;;;;;;5089188;28;20237;-89
2022/02/08 01:07:19;;;;;;;7.77;3.37;;;3.60;82.90;;;;;;5089144;28;20299;-88
2022/02/08 01:12:11;;;;;;;7.67;3.83;;;3.50;83.20;;;;;;5065529;28;20222;-89
2022/02/08 01:14:40;;;;;;;5.73;3.63;;;3.50;83.20;;;;;;5075423;28;20187;-89
2022/02/08 01:17:07;;;;;;;6.57;3.70;;;3.50;83.40;;;;;;5083410;28;20574;-89
2022/02/08 01:19:34;;;;;;;9.67;4.07;;;3.40;84.10;;;;;;5072813;28;20187;-89
2022/02/08 01:22:00;;;;;;;7.30;3.50;;;3.30;85.60;;;;;;5098026;28;20190;-88
2022/02/08 01:24:25;;;;;;;8.57;4.00;;;3.40;84.30;;;;;;5077270;28;20194;-89
2022/02/08 01:27:01;;;;;;;6.53;3.20;;;3.40;83.90;;;;;;5088082;28;20215;-89
2022/02/08 01:29:54;;;;;;;6.97;3.70;;;3.30;85.00;;;;;;5097628;28;20210;-89
2022/02/08 01:37:28;;;;;;;6.00;3.37;;;3.20;85.20;;;;;;5087509;28;20210;-90
2022/02/08 01:40:24;;;;;;;6.93;3.43;;;3.10;84.90;;;;;;5079389;28;20692;-90
2022/02/08 01:43:20;;;;;;;7.97;3.40;;;3.10;85.00;;;;;;5057960;28;20248;-89
2022/02/08 01:48:29;;;;;;;7.17;3.93;;;3.10;85.30;;;;;;5089979;28;20534;-90
2022/02/08 01:50:55;;;;;;;6.70;3.87;;;3.00;84.90;;;;;;5083907;28;20182;-90
2022/02/08 01:53:22;;;;;;;4.80;3.20;;;3.10;85.10;;;;;;5086074;28;20241;-91
2022/02/08 01:55:49;;;;;;;11.83;4.40;;;3.10;85.40;;;;;;5086447;28;20244;-90
2022/02/08 01:58:15;;;;;;;7.07;3.87;;;3.00;85.40;;;;;;5070698;28;20223;-90
2022/02/08 02:00:41;;;;;;;7.40;3.57;;;3.00;85.40;;;;;;5070197;28;20219;-90
2022/02/08 02:03:07;;;;;;;7.03;3.80;;;3.00;85.40;;;;;;5060496;28;20183;-90
2022/02/08 02:05:33;;;;;;;7.33;3.00;;;3.00;86.10;;;;;;5054783;28;20624;-89
2022/02/08 02:07:59;;;;;;;11.87;3.77;;;3.00;85.50;;;;;;5065764;28;20643;-90
2022/02/08 02:10:25;;;;;;;6.83;2.83;;;2.90;86.00;;;;;;5063924;28;20693;-90
2022/02/08 02:13:00;;;;;;;5.60;3.07;;;2.90;85.70;;;;;;5070475;28;20274;-90
2022/02/08 02:15:26;;;;;;;5.43;3.03;;;2.90;85.40;;;;;;5061612;28;20203;-90
2022/02/08 02:17:53;;;;;;;7.27;3.30;;;2.90;85.40;;;;;;5030834;28;20581;-90
2022/02/08 02:20:20;;;;;;;6.50;4.03;;;3.00;85.30;;;;;;5061283;28;20187;-90
2022/02/08 02:22:46;;;;;;;7.60;3.30;;;3.00;85.20;;;;;;5046851;28;20694;-90
2022/02/08 02:25:26;;;;;;;6.73;3.30;;;3.10;84.70;;;;;;5056428;28;20189;-90
2022/02/08 02:27:55;;;;;;;5.73;3.60;;;3.00;84.70;;;;;;5077768;28;20203;-90
2022/02/08 02:30:23;;;;;;;7.70;3.67;;;3.00;85.00;;;;;;5047855;28;20218;-90
2022/02/08 02:32:49;;;;;;;5.20;3.43;;;3.00;84.80;;;;;;5077987;28;20180;-90
2022/02/08 02:35:14;;;;;;;6.63;3.07;;;3.00;84.80;;;;;;5071013;28;20218;-90
2022/02/08 02:37:40;;;;;;;7.33;3.37;;;3.20;84.60;;;;;;5067450;28;20293;-90
2022/02/08 02:40:06;;;;;;;7.40;3.87;;;3.10;84.80;;;;;;5080169;28;20191;-90
2022/02/08 02:42:33;;;;;;;8.87;3.50;;;3.10;85.80;;;;;;5077871;28;20200;-90
2022/02/08 02:45:00;;;;;;;9.57;3.43;;;3.00;85.10;;;;;;5063346;28;20755;-89
2022/02/08 02:47:26;;;;;;;5.30;3.17;;;3.10;85.10;;;;;;5076357;28;20322;-90
2022/02/08 02:49:52;;;;;;;6.50;3.30;;;3.20;85.20;;;;;;5073119;28;20239;-89
2022/02/08 02:52:17;;;;;;;7.50;3.10;;;3.20;85.10;;;;;;5064187;28;20190;-90
2022/02/08 02:54:43;;;;;;;6.33;2.90;;;3.40;83.70;;;;;;5055967;28;20184;-90
2022/02/08 02:57:11;;;;;;;6.33;3.10;;;3.40;83.20;;;;;;5070692;28;20238;-90
2022/02/08 02:59:38;;;;;;;7.37;3.10;;;3.60;82.00;;;;;;5071549;28;20208;-90
2022/02/08 03:04:48;;;;;;;7.00;3.33;;;3.70;80.00;;;;;;5059218;28;20192;-90
2022/02/08 03:20:46;;;;;;;6.57;2.83;;;4.00;76.10;;;;;;5079737;28;20241;-89
2022/02/08 03:23:12;;;;;;;5.20;2.57;;;3.90;78.10;;;;;;5068217;28;20185;-90
2022/02/08 03:25:38;;;;;;;4.17;2.60;;;4.00;77.20;;;;;;5069208;28;20313;-89
2022/02/08 03:28:04;;;;;;;7.67;2.63;;;4.10;76.90;;;;;;5071857;28;20246;-89
2022/02/08 03:30:30;;;;;;;7.77;2.97;;;4.00;78.20;;;;;;5050463;28;20900;-90
2022/02/08 03:32:55;;;;;;;3.30;2.47;;;4.00;77.50;;;;;;5073544;28;20186;-90
2022/02/08 03:35:22;;;;;;;5.93;2.80;;;3.90;78.20;;;;;;5056939;28;20196;-89
2022/02/08 03:38:01;;;;;;;6.67;2.80;;;3.90;77.90;;;;;;5071735;28;20207;-89
2022/02/08 03:41:10;;;;;;;6.73;2.60;;;4.10;77.50;;;;;;5062651;28;20191;-90
2022/02/08 03:45:47;;;;;;;6.97;3.00;;;4.00;78.70;;;;;;5074568;28;20268;-89
2022/02/08 03:48:16;;;;;;;6.93;2.37;;;4.10;78.50;;;;;;5058736;28;20191;-89
2022/02/08 03:50:45;;;;;;;5.90;2.43;;;4.00;79.30;;;;;;5072574;28;20733;-90
2022/02/08 03:53:10;;;;;;;8.30;3.17;;;4.00;79.90;;;;;;5071305;28;20270;-90
2022/02/08 03:55:36;;;;;;;8.53;3.00;;;4.10;78.50;;;;;;5049935;28;20220;-90
2022/02/08 03:58:02;;;;;;;6.43;2.63;;;4.00;78.70;;;;;;5066130;28;20266;-90
2022/02/08 04:00:33;;;;;;;5.73;3.10;;;4.00;77.40;;;;;;5072271;28;20180;-89
2022/02/08 04:02:59;;;;;;;5.23;2.77;;;4.10;78.60;;;;;;5068967;28;20195;-90
2022/02/08 04:07:55;;;;;;;6.20;3.20;;;4.00;80.10;;;;;;5062503;28;20218;-90
2022/02/08 04:10:22;;;;;;;5.60;2.97;;;4.00;79.20;;;;;;5069346;28;20218;-90
2022/02/08 04:37:31;;;;;;;7.90;2.80;;;4.20;78.00;;;;;;5055241;28;20211;-90
2022/02/08 04:45:25;;;;;;;4.03;2.63;;;4.40;76.80;;;;;;5087557;28;20199;-91
2022/02/08 04:50:26;;;;;;;3.97;2.17;;;4.50;75.70;;;;;;5065221;28;20801;-90
2022/02/08 04:52:57;;;;;;;5.97;2.60;;;4.50;76.80;;;;;;5067615;28;20282;-91
2022/02/08 04:55:36;;;;;;;5.67;2.50;;;4.50;75.50;;;;;;5085275;28;20195;-90
2022/02/08 05:00:44;;;;;;;6.00;2.93;;;4.40;76.70;;;;;;5081203;28;20191;-90
2022/02/08 05:48:52;;;;;;;4.80;2.60;;;4.60;74.20;;;;;;5097360;28;20202;-88
2022/02/08 05:51:21;;;;;;;4.37;2.27;;;4.70;74.20;;;;;;5069247;28;20226;-88
2022/02/08 05:53:48;;;;;;;4.30;2.10;;;4.60;74.90;;;;;;5082773;28;20544;-89
2022/02/08 05:56:16;;;;;;;5.53;2.30;;;4.40;75.60;;;;;;5046233;28;20199;-89
2022/02/08 05:58:45;;;;;;;4.80;2.30;;;4.40;76.00;;;;;;5080758;28;20281;-88
2022/02/08 06:01:11;;;;;;;5.63;2.80;;;4.40;75.70;;;;;;5095239;28;20632;-90
2022/02/08 06:03:38;;;;;;;4.83;2.47;;;4.40;76.70;;;;;;5100644;28;20183;-89
2022/02/08 06:06:04;;;;;;;5.33;2.30;;;4.30;77.20;;;;;;5094198;28;20222;-89
2022/02/08 06:08:30;;;;;;;6.77;2.80;;;4.40;76.10;;;;;;5080039;28;20215;-88
2022/02/08 06:11:02;;;;;;;6.90;2.93;;;4.40;75.60;;;;;;5099593;28;20711;-89
2022/02/08 06:13:28;;;;;;;5.27;2.53;;;4.40;76.10;;;;;;5095304;28;20240;-89
2022/02/08 06:16:01;;;;;;;6.30;2.77;;;4.40;76.30;;;;;;5079634;28;20190;-89
2022/02/08 06:18:29;;;;;;;5.47;2.53;;;4.50;75.90;;;;;;5083118;28;20187;-90
2022/02/08 06:20:54;;;;;;;5.63;2.30;;;4.50;76.50;;;;;;5104896;28;20180;-89
2022/02/08 06:23:20;;;;;;;5.00;2.40;;;4.60;74.70;;;;;;5077406;28;20199;-88
2022/02/08 06:25:46;;;;;;;6.17;2.17;;;4.50;76.00;;;;;;5092818;28;20186;-89
2022/02/08 06:28:13;;;;;;;5.77;3.33;;;4.50;76.30;;;;;;5097459;28;20247;-89
2022/02/08 06:30:38;;;;;;;5.10;2.20;;;4.50;76.20;;;;;;5089480;28;20176;-90
2022/02/08 06:33:05;;;;;;;4.50;2.47;;;4.50;77.00;;;;;;5075150;28;20187;-89
2022/02/08 06:35:33;;;;;;;5.87;2.47;;;4.60;75.80;;;;;;5090805;28;20661;-90
2022/02/08 06:38:00;;;;;;;7.10;2.77;;;4.70;75.50;;;;;;5079495;28;20206;-90
2022/02/08 06:40:26;;;;;;;7.40;2.53;;;4.70;76.00;;;;;;5091015;28;20262;-91
2022/02/08 06:43:00;;;;;;;4.10;2.40;;;4.60;76.10;;;;;;5090375;28;20182;-90
2022/02/08 06:45:26;;;;;;;4.30;2.50;;;4.60;76.60;;;;;;5074951;28;20193;-90
2022/02/08 06:47:52;;;;;;;5.57;2.57;;;4.60;77.10;;;;;;5064702;28;20203;-90
2022/02/08 06:50:18;;;;;;;5.63;2.43;;;4.60;76.80;;;;;;5074072;28;20208;-90
2022/02/08 06:52:44;;;;;;;4.83;2.20;;;4.60;76.80;;;;;;5111339;28;20238;-92
2022/02/08 06:55:11;;;;;;;7.07;2.67;;;4.50;78.10;;;;;;5092583;28;20187;-91
2022/02/08 07:00:24;;;;;;;8.83;2.50;;;4.70;76.40;;;;;;5087106;28;20214;-90
2022/02/08 07:02:50;;;;;;;7.43;2.70;;;4.60;76.70;;;;;;5097911;28;20202;-91
2022/02/08 07:05:18;;;;;;;6.20;2.17;;;4.60;76.80;;;;;;5083577;28;20190;-90
2022/02/08 07:07:43;;;;;;;8.27;2.83;;;4.70;77.10;;;;;;5106413;28;20195;-92
2022/02/08 07:10:10;;;;;;;7.87;2.50;;;4.60;77.40;;;;;;5081589;28;20215;-93
2022/02/08 07:12:35;;;;;;;4.33;2.43;;;4.60;77.60;;;;;;5100216;28;20194;-91
2022/02/08 07:15:10;;;;;;;8.03;2.90;;;4.70;77.20;;;;;;5118309;28;20195;-91
2022/02/08 07:17:35;;;;;;;9.53;2.77;;;4.70;77.00;;;;;;5101393;28;20230;-90
2022/02/08 07:20:01;;;;;;;5.47;2.80;;;4.70;77.30;;;;;;5036701;28;20571;-90
2022/02/08 07:22:27;;;;;;;6.17;2.40;;;4.70;77.00;;;;;;5059490;28;20344;-91
2022/02/08 07:24:55;;;;;;;7.07;2.47;;;4.70;76.90;;;;;;5082352;28;20203;-90
2022/02/08 07:27:21;;;;;;;5.23;2.40;;;4.80;76.40;;;;;;5093418;28;20222;-89
2022/02/08 07:29:51;;;;;;;4.87;2.30;;;4.80;76.70;;;;;;5085487;28;20302;-90
2022/02/08 07:32:18;;;;;;;5.33;2.80;;;4.80;76.20;;;;;;5067339;28;20194;-91
2022/02/08 07:34:49;;;;;;;7.43;2.50;;;4.90;75.70;;;;;;5096116;28;20191;-90
2022/02/08 07:37:30;;;;;;;3.80;2.30;;;4.90;75.20;;;;;;5060321;28;20275;-90
2022/02/08 07:40:01;;;;;;;3.80;2.20;;;4.80;75.70;;;;;;5089227;28;20665;-89
2022/02/08 07:42:27;;;;;;;6.13;2.33;;;4.90;75.00;;;;;;5094057;28;20261;-90
2022/02/08 07:44:53;;;;;;;4.57;2.10;;;5.00;74.10;;;;;;5091153;28;20195;-92
2022/02/08 07:47:18;;;;;;;5.77;2.60;;;5.00;74.30;;;;;;5058003;28;20563;-90
2022/02/08 07:49:44;;;;;;;5.00;2.30;;;5.00;73.60;;;;;;5093275;28;20207;-90
2022/02/08 07:52:10;;;;;;;6.57;2.40;;;5.00;74.30;;;;;;5075126;28;20191;-90
2022/02/08 07:54:36;;;;;;;6.20;2.43;;;5.00;73.80;;;;;;5073023;28;20247;-91
2022/02/08 07:57:02;;;;;;;5.97;2.40;;;5.00;74.10;;;;;;5094663;28;20290;-90
2022/02/08 07:59:28;;;;;;;6.20;2.40;;;5.10;72.70;;;;;;5097174;28;20287;-90
2022/02/08 08:01:53;;;;;;;4.37;2.33;;;5.30;72.00;;;;;;5086907;28;20674;-91
2022/02/08 08:04:19;;;;;;;7.33;2.30;;;5.10;72.00;;;;;;5081710;28;20254;-91
2022/02/08 08:06:45;;;;;;;6.80;2.60;;;5.20;71.50;;;;;;5093821;28;20218;-90
2022/02/08 08:09:11;;;;;;;8.03;2.40;;;5.20;71.40;;;;;;5061119;28;20266;-90
2022/02/08 08:11:39;;;;;;;7.17;2.57;;;5.20;71.00;;;;;;5083154;28;20233;-90
2022/02/08 08:14:06;;;;;;;5.10;2.53;;;5.40;70.50;;;;;;5097028;28;20186;-90
2022/02/08 08:19:25;;;;;;;3.53;2.10;;;5.40;70.30;;;;;;5100227;28;20175;-90
2022/02/08 08:21:52;;;;;;;3.13;2.10;;;5.30;70.10;;;;;;5110316;28;20175;-91
2022/02/08 08:24:18;;;;;;;6.77;2.20;;;5.40;69.80;;;;;;5090648;28;20250;-90
2022/02/08 08:26:44;;;;;;;3.83;2.37;;;5.40;69.80;;;;;;5103238;28;20226;-91
2022/02/08 08:29:09;;;;;;;6.67;2.30;;;5.50;69.40;;;;;;5096159;28;20211;-91
2022/02/08 08:31:35;;;;;;;4.70;2.40;;;5.50;70.00;;;;;;5110305;28;20199;-90
2022/02/08 08:34:01;;;;;;;9.13;2.57;;;5.60;68.90;;;;;;5085488;28;20206;-90
2022/02/08 08:36:29;;;;;;;4.57;2.53;;;5.80;68.10;;;;;;5078851;28;20252;-90
2022/02/08 08:38:55;;;;;;;5.73;2.60;;;5.70;69.00;;;;;;5089566;28;20186;-89
2022/02/08 08:54:07;;;;;;;6.20;2.70;;;5.90;69.00;;;;;;5107319;28;20186;-90
2022/02/08 08:56:34;;;;;;;3.33;2.23;;;5.80;68.50;;;;;;5090611;28;20211;-90
2022/02/08 08:59:00;;;;;;;6.40;2.83;;;5.80;70.40;;;;;;5108778;28;20429;-90
2022/02/08 09:01:26;;;;;;;4.03;2.40;;;5.80;68.70;;;;;;5100500;28;20190;-90
2022/02/08 09:03:52;;;;;;;5.53;2.87;;;5.80;70.40;;;;;;5097669;28;20188;-90
2022/02/08 09:06:18;;;;;;;4.30;2.30;;;6.00;69.40;;;;;;5099495;28;20221;-91
2022/02/08 09:08:44;;;;;;;4.70;2.50;;;6.00;68.40;;;;;;5052965;28;20211;-90
2022/02/08 09:11:20;;;;;;;6.20;2.23;;;6.00;68.20;;;;;;5093587;28;20194;-90
2022/02/08 09:14:40;;;;;;;6.27;2.07;;;6.20;66.80;;;;;;5078533;28;20212;-90
2022/02/08 09:16:49;;;;;;;6.30;2.63;;;6.40;65.90;;;;;;5069156;28;20230;-91
2022/02/08 09:24:36;;;;;;;5.27;2.37;;;6.30;67.10;;;;;;5092450;28;20222;-90
2022/02/08 09:29:56;;;;;;;4.53;2.20;;;6.60;65.30;;;;;;5080513;28;20271;-91
2022/02/08 09:32:38;;;;;;;6.57;2.30;;;6.40;66.00;;;;;;5063345;28;20553;-90
2022/02/08 09:35:07;;;;;;;4.27;2.17;;;6.50;65.80;;;;;;5080133;28;20194;-90
2022/02/08 09:37:34;;;;;;;6.13;2.40;;;6.60;65.60;;;;;;5082328;28;20256;-91
2022/02/08 09:40:00;;;;;;;5.83;2.60;;;6.40;65.00;;;;;;5071787;28;20191;-90
2022/02/08 09:42:26;;;;;;;6.80;2.77;;;6.50;65.20;;;;;;5066071;28;20191;-91
2022/02/08 09:44:54;;;;;;;6.17;2.37;;;6.60;66.40;;;;;;5097566;28;20194;-91
2022/02/08 09:47:31;;;;;;;8.17;2.43;;;6.60;65.60;;;;;;5091671;28;20260;-91
2022/02/08 09:50:06;;;;;;;5.13;2.70;;;6.70;66.20;;;;;;5090149;28;20264;-90
2022/02/08 09:52:31;;;;;;;4.70;2.53;;;6.70;65.50;;;;;;5069357;28;20254;-90
2022/02/08 09:54:57;;;;;;;5.47;2.60;;;6.70;65.70;;;;;;5047268;28;20210;-91
2022/02/08 09:57:23;;;;;;;7.87;2.90;;;6.70;66.80;;;;;;5087647;28;20592;-91
2022/02/08 09:59:49;;;;;;;7.97;2.47;;;6.60;66.50;;;;;;5087983;28;20713;-91
2022/02/08 10:02:20;;;;;;;8.60;2.60;;;6.60;66.90;;;;;;5061932;28;20207;-90
2022/02/08 10:04:46;;;;;;;5.43;2.50;;;6.70;67.00;;;;;;5095070;28;20190;-91
2022/02/08 10:07:14;;;;;;;8.43;3.07;;;6.60;69.30;;;;;;5099766;28;20297;-91
2022/02/08 10:09:42;;;;;;;5.83;2.70;;;6.60;69.00;;;;;;5081595;28;20458;-91
2022/02/08 10:12:08;;;;;;;7.67;2.93;;;6.70;68.10;;;;;;5097099;28;20190;-90
2022/02/08 10:22:49;;;;;;;5.37;2.30;;;6.70;68.20;;;;;;5084617;28;20178;-90
2022/02/08 10:26:01;;;;;;;5.80;2.87;;;6.70;69.40;;;;;;5093777;28;20187;-90
2022/02/08 10:28:14;;;;;;;8.03;2.70;;;6.80;68.10;;;;;;5086750;28;20247;-91
2022/02/08 10:31:04;;;;;;;9.67;3.40;;;6.70;68.20;;;;;;5066414;28;20211;-90
2022/02/08 10:39:04;;;;;;;7.03;2.63;;;7.00;67.80;;;;;;5098061;28;20257;-90
2022/02/08 10:41:33;;;;;;;6.57;2.70;;;7.10;67.50;;;;;;5094012;28;20182;-90
2022/02/08 10:44:07;;;;;;;7.47;2.73;;;7.10;68.00;;;;;;5071245;28;20258;-90
2022/02/08 10:46:35;;;;;;;6.97;2.83;;;7.10;67.10;;;;;;5089155;28;20210;-90
2022/02/08 10:49:03;;;;;;;6.13;2.73;;;7.10;67.60;;;;;;5097186;28;20206;-90
2022/02/08 10:51:33;;;;;;;6.07;2.70;;;7.10;68.40;;;;;;5092927;28;20191;-91
2022/02/08 10:54:05;;;;;;;6.53;2.37;;;7.10;69.10;;;;;;5090336;28;20183;-91
2022/02/08 10:56:34;;;;;;;6.20;2.87;;;7.00;69.00;;;;;;5092530;28;20203;-90
2022/02/08 10:59:17;;;;;;;9.53;2.80;;;7.20;69.40;;;;;;5070923;28;20191;-91
2022/02/08 11:01:53;;;;;;;10.53;3.73;;;7.20;69.30;;;;;;5073489;28;20194;-90
2022/02/08 11:04:32;;;;;;;9.27;2.80;;;7.10;71.50;;;;;;5067065;28;20225;-91
2022/02/08 11:07:15;;;;;;;6.90;2.93;;;7.10;70.50;;;;;;5069206;28;20309;-90
2022/02/08 11:09:51;;;;;;;5.47;2.80;;;7.10;70.20;;;;;;5073185;28;20212;-91
2022/02/08 11:12:54;;;;;;;6.33;2.73;;;7.10;71.50;;;;;;5087864;28;20255;-91
2022/02/08 11:18:17;;;;;;;9.53;3.00;;;7.30;70.70;;;;;;5089532;28;20214;-90
2022/02/08 11:20:49;;;;;;;7.60;2.80;;;7.30;73.20;;;;;;5093283;28;20278;-90
2022/02/08 11:23:35;;;;;;;6.00;2.87;;;7.50;71.40;;;;;;5093295;28;20247;-91
2022/02/08 11:26:02;;;;;;;7.40;2.67;;;7.50;72.20;;;;;;5090033;28;20213;-91
2022/02/08 11:28:44;;;;;;;6.13;2.97;;;7.60;73.10;;;;;;5095271;28;20248;-89
2022/02/08 11:31:29;;;;;;;5.90;2.50;;;7.70;73.00;;;;;;5092375;28;20197;-90
2022/02/08 12:01:44;;;;;;;8.13;2.60;;;7.70;83.40;;;;;;5097446;28;20247;-91
2022/02/08 12:32:07;;;;;;;7.33;3.00;;;7.70;83.60;;;;;;5087412;28;20202;-90
2022/02/08 12:48:46;;;;;;;9.93;3.40;;;8.00;85.30;;;;;;5070609;28;20215;-91
2022/02/08 12:56:36;;;;;;;10.77;3.37;;;8.10;85.50;;;;;;5071906;28;20209;-91
2022/02/08 13:02:41;;;;;;;9.10;3.30;;;7.90;88.40;;;;;;5046015;28;20554;-90
2022/02/08 13:19:40;;;;;;;9.33;3.60;;;7.70;90.20;;;;;;5073359;28;20202;-91
2022/02/08 13:32:30;;;;;;;8.43;3.10;;;8.00;90.10;;;;;;5084900;28;20207;-90
2022/02/08 14:08:13;;;;;;;4.83;3.03;;;8.80;87.00;;;;;;5105264;28;20217;-89
2022/02/08 14:21:17;;;;;;;10.93;3.50;;;9.00;86.90;;;;;;5104815;28;20217;-90
2022/02/08 14:31:45;;;;;;;10.67;3.93;;;8.80;87.50;;;;;;5105001;28;20794;-89
2022/02/08 15:07:25;;;;;;;8.33;3.20;;;8.80;93.20;;;;;;5087613;28;20740;-92
2022/02/08 15:09:10;;;;;;;6.20;3.20;;;8.80;93.60;;;;;;5063160;28;20428;-91
2022/02/08 15:11:47;;;;;;;6.40;4.00;;;8.90;92.90;;;;;;5057347;28;20222;-91
2022/02/08 15:14:13;;;;;;;6.67;2.90;;;9.00;92.70;;;;;;5072407;28;20179;-91
2022/02/08 15:16:39;;;;;;;5.37;2.90;;;9.00;92.30;;;;;;5074863;28;20218;-91
2022/02/08 15:19:05;;;;;;;6.27;3.30;;;9.10;92.60;;;;;;5091301;28;20720;-90
2022/02/08 15:21:33;;;;;;;5.20;2.67;;;9.10;92.50;;;;;;5078708;28;20214;-91
2022/02/08 15:24:01;;;;;;;5.83;2.67;;;9.10;92.50;;;;;;5073760;28;20187;-91
2022/02/08 15:26:28;;;;;;;4.67;2.87;;;9.10;92.90;;;;;;5087648;28;20294;-91
2022/02/08 15:28:54;;;;;;;7.30;3.30;;;9.00;93.70;;;;;;5087756;28;20662;-91
2022/02/08 15:31:21;;;;;;;8.03;3.20;;;8.90;94.80;;;;;;5090898;28;20195;-91
2022/02/08 15:33:47;;;;;;;9.00;3.23;;;9.00;95.00;;;;;;5086338;28;20313;-91
2022/02/08 15:36:15;;;;;;;9.97;3.07;;;8.80;94.10;;;;;;5085253;28;20340;-91
2022/02/08 15:38:50;;;;;;;8.73;3.60;;;8.70;95.50;;;;;;5091109;28;20190;-91
2022/02/08 15:41:17;;;;;;;7.93;3.37;;;8.60;95.40;;;;;;5084751;28;20529;-90
2022/02/08 15:43:42;;;;;;;8.93;3.57;;;8.50;94.60;;;;;;5089322;28;20175;-91
2022/02/08 15:46:23;;;;;;;7.33;3.07;;;8.60;95.60;;;;;;5060909;28;20187;-91
2022/02/08 15:48:50;;;;;;;10.83;3.90;;;8.60;95.90;;;;;;5073384;28;20215;-91
2022/02/08 15:53:55;;;;;;;8.53;3.10;;;8.70;94.70;;;;;;5090932;28;20701;-91
2022/02/08 16:10:07;;;;;;;11.40;3.70;;;8.90;92.30;;;;;;5088933;28;20627;-92
2022/02/08 16:17:45;;;;;;;9.70;3.80;;;9.00;91.90;;;;;;5087604;28;20218;-91
2022/02/08 16:32:00;;;;;;;11.80;3.73;;;8.80;92.70;;;;;;5053336;28;20764;-91
2022/02/08 16:46:02;;;;;;;8.27;4.13;;;8.90;91.40;;;;;;5082734;28;20203;-91
2022/02/08 16:53:08;;;;;;;8.93;3.83;;;8.90;91.90;;;;;;5090301;28;20604;-91
2022/02/08 16:58:27;;;;;;;11.57;3.83;;;8.90;92.30;;;;;;5086626;28;20256;-91
2022/02/08 17:00:57;;;;;;;8.90;4.00;;;8.90;92.00;;;;;;5088472;28;20194;-91
2022/02/08 17:03:29;;;;;;;12.33;4.53;;;8.90;92.20;;;;;;5090932;28;20246;-91
2022/02/08 17:05:54;;;;;;;8.77;4.10;;;8.90;92.50;;;;;;5080511;28;20666;-92
2022/02/08 17:08:22;;;;;;;8.33;4.33;;;8.70;93.60;;;;;;5076246;28;20202;-91
2022/02/08 17:10:51;;;;;;;7.63;3.73;;;8.60;95.20;;;;;;5068835;28;20266;-92
2022/02/08 17:17:06;;;;;;;7.97;4.50;;;8.40;96.90;;;;;;5053937;28;20271;-92
2022/02/08 17:46:17;;;;;;;11.73;5.10;;;8.40;96.20;;;;;;5091537;28;20201;-91
2022/02/08 17:48:42;;;;;;;9.90;4.83;;;8.40;96.70;;;;;;5093420;28;20311;-91
2022/02/08 17:51:08;;;;;;;13.80;4.77;;;8.40;96.30;;;;;;5069518;28;20229;-91
2022/02/08 17:53:34;;;;;;;8.00;4.27;;;8.60;95.50;;;;;;5059329;28;20183;-92
2022/02/08 17:55:59;;;;;;;7.63;4.50;;;8.50;95.30;;;;;;5055313;28;20203;-92
2022/02/08 17:58:25;;;;;;;8.67;4.17;;;8.40;95.90;;;;;;5045743;28;20185;-92
2022/02/08 18:00:51;;;;;;;8.80;4.60;;;8.50;95.90;;;;;;5041459;28;20792;-90
2022/02/08 18:03:17;;;;;;;8.37;4.30;;;8.60;95.80;;;;;;5065172;28;20192;-90
2022/02/08 18:05:44;;;;;;;6.80;3.63;;;8.50;96.70;;;;;;5041212;28;20199;-91
2022/02/08 18:08:14;;;;;;;7.97;4.53;;;8.60;96.90;;;;;;5052660;28;20230;-92
2022/02/08 18:10:41;;;;;;;8.83;3.50;;;8.70;97.30;;;;;;5073698;28;20307;-91
2022/02/08 18:13:12;;;;;;;5.27;3.73;;;8.70;97.20;;;;;;5055674;28;20188;-89
2022/02/08 18:15:38;;;;;;;6.37;4.23;;;8.70;97.60;;;;;;5057787;28;20561;-89
2022/02/08 18:18:10;;;;;;;5.70;3.93;;;8.70;97.50;;;;;;5060270;28;20291;-89
2022/02/08 18:20:58;;;;;;;6.50;3.50;;;8.70;97.90;;;;;;5053975;28;20196;-89
2022/02/08 18:50:15;;;;;;;4.73;3.33;;;8.60;98.90;;;;;;5049382;28;20182;-89
2022/02/08 18:56:26;;;;;;;5.63;3.47;;;8.60;99.90;;;;;;5075132;28;20186;-87
2022/02/08 19:12:22;;;;;;;3.47;2.93;;;8.60;99.90;;;;;;5035298;28;20204;-90
2022/02/08 19:19:56;;;;;;;3.77;2.90;;;8.50;99.90;;;;;;5055106;28;20714;-90
2022/02/08 19:22:25;;;;;;;3.13;2.60;;;8.50;99.90;;;;;;5066895;28;20562;-90
2022/02/08 19:24:57;;;;;;;3.87;2.70;;;8.50;99.90;;;;;;5075249;28;20232;-88
2022/02/08 19:27:25;;;;;;;3.87;3.00;;;8.50;99.90;;;;;;5042435;28;20302;-88
2022/02/08 19:30:02;;;;;;;3.70;2.73;;;8.60;99.90;;;;;;5063919;28;20219;-89
2022/02/08 19:32:31;;;;;;;3.63;2.70;;;8.60;99.90;;;;;;5060817;28;20183;-89
2022/02/08 19:34:58;;;;;;;6.07;2.60;;;8.50;99.90;;;;;;5029328;28;20191;-88
2022/02/08 19:37:26;;;;;;;3.80;3.40;;;8.50;99.90;;;;;;5044652;28;20219;-88
2022/02/08 19:40:06;;;;;;;2.30;2.10;;;8.50;99.90;;;;;;5080045;28;20175;-87
2022/02/08 19:42:42;;;;;;;2.87;2.57;;;8.30;99.90;;;;;;5076709;28;20276;-90
2022/02/08 19:45:15;;;;;;;3.00;2.60;;;8.40;99.90;;;;;;5061472;28;20180;-88
2022/02/08 19:47:45;;;;;;;4.87;4.03;;;8.40;99.90;;;;;;5079126;28;20253;-93
2022/02/08 19:50:11;;;;;;;3.50;3.07;;;8.40;99.90;;;;;;5052988;28;20212;-91
2022/02/08 19:52:39;;;;;;;3.17;2.03;;;8.40;99.90;;;;;;5076424;28;20183;-89
2022/02/08 19:57:33;;;;;;;4.37;1.90;;;8.40;99.90;;;;;;5056625;28;20223;-90
2022/02/08 20:00:05;;;;;;;2.13;1.93;;;8.40;99.90;;;;;;5068046;28;20632;-91
2022/02/08 20:02:38;;;;;;;3.17;1.70;;;8.30;99.90;;;;;;5051386;28;20233;-90
2022/02/08 20:05:04;;;;;;;2.20;1.60;;;8.20;99.90;;;;;;5051583;28;20199;-90
2022/02/08 20:07:30;;;;;;;1.90;1.50;;;8.10;99.90;;;;;;5046940;28;20207;-90
2022/02/08 20:09:55;;;;;;;1.43;1.33;;;8.10;99.90;;;;;;5034698;28;20725;-90
2022/02/08 20:12:21;;;;;;;2.40;1.57;;;8.20;99.90;;;;;;5050152;28;20206;-90
2022/02/08 20:14:47;;;;;;;2.77;1.80;;;8.20;99.90;;;;;;5068713;28;20188;-90
2022/02/08 20:17:12;;;;;;;1.63;1.53;;;8.20;99.90;;;;;;5070151;28;20229;-89
2022/02/08 20:19:38;;;;;;;2.03;1.83;;;8.00;99.90;;;;;;5051012;28;20196;-90
2022/02/08 20:22:07;;;;;;;2.37;1.97;;;8.10;99.90;;;;;;5068041;28;20269;-89
2022/02/08 20:24:33;;;;;;;4.03;2.30;;;8.00;99.90;;;;;;5065424;28;20191;-89
2022/02/08 20:29:46;;;;;;;1.87;1.70;;;8.10;99.90;;;;;;5069109;28;20289;-90
2022/02/08 20:32:12;;;;;;;2.03;1.93;;;8.00;99.90;;;;;;5067894;28;20179;-90
2022/02/08 20:34:39;;;;;;;2.43;2.23;;;8.00;99.90;;;;;;5068340;28;20184;-89
2022/02/08 20:37:06;;;;;;;2.00;1.90;;;8.00;99.90;;;;;;5076806;28;20191;-89
2022/02/08 20:39:32;;;;;;;2.87;1.83;;;7.90;99.90;;;;;;5077592;28;20222;-89
2022/02/08 20:42:00;;;;;;;1.83;1.73;;;7.80;99.90;;;;;;5069100;28;20191;-89
2022/02/08 20:44:26;;;;;;;2.97;2.33;;;7.90;99.90;;;;;;5072406;28;20539;-87
2022/02/08 20:47:04;;;;;;;3.57;2.53;;;7.80;99.90;;;;;;5028847;28;20282;-89
2022/02/08 20:49:30;;;;;;;3.00;2.67;;;7.80;99.90;;;;;;5064090;28;20200;-88
2022/02/08 20:51:56;;;;;;;4.53;3.60;;;7.90;99.90;;;;;;5071450;28;20276;-90
2022/02/08 20:54:26;;;;;;;5.40;4.77;;;8.00;99.90;;;;;;5063342;28;20202;-89
2022/02/08 20:57:02;;;;;;;4.60;4.20;;;7.90;99.90;;;;;;5056771;28;20225;-91
2022/02/08 20:59:29;;;;;;;3.90;3.47;;;7.90;99.90;;;;;;5089631;28;20638;-90
2022/02/08 21:01:56;;;;;;;3.27;2.83;;;8.00;99.90;;;;;;5063880;28;20247;-90
2022/02/08 21:06:47;;;;;;;2.87;2.67;;;7.90;99.90;;;;;;5080992;28;20381;-90
2022/02/08 21:09:14;;;;;;;3.03;2.73;;;7.90;99.90;;;;;;5082642;28;20210;-90
2022/02/08 21:11:44;;;;;;;2.30;2.13;;;7.90;99.90;;;;;;5063032;28;20211;-91